Time;durP1;ratioP1;P1;durP2;ratioP2;P2;SDS_P1;SDS_P2;PMS_P1;PMS_P2;Temp;Humidity;BMP_temperature;BMP_pressure;BME280_temperature;BME280_humidity;BME280_pressure;Samples;Min_cycle;Max_cycle;Signal;HPM_P1;HPM_P2
2022/09/23 00:01:06;;;;;;;2.03;1.92;;;18.40;59.30;;;;;;5035017;28;20190;-73
2022/09/23 00:03:33;;;;;;;1.55;1.45;;;18.40;59.40;;;;;;5051626;28;20239;-73
2022/09/23 00:06:09;;;;;;;1.40;1.30;;;18.40;59.30;;;;;;5068332;28;20202;-73
2022/09/23 00:08:36;;;;;;;1.90;1.80;;;18.40;59.30;;;;;;5051453;28;20182;-73
2022/09/23 00:11:20;;;;;;;2.10;1.77;;;18.40;59.40;;;;;;5034996;28;20591;-73
2022/09/23 00:13:49;;;;;;;2.03;1.92;;;18.40;59.40;;;;;;5028610;28;20203;-73
2022/09/23 00:16:24;;;;;;;2.30;1.67;;;18.40;59.30;;;;;;5025922;28;20288;-73
2022/09/23 00:18:50;;;;;;;1.77;1.67;;;18.40;59.30;;;;;;5011916;28;20634;-73
2022/09/23 00:21:16;;;;;;;2.40;1.70;;;18.40;59.40;;;;;;5011678;28;20219;-73
2022/09/23 00:23:42;;;;;;;1.70;1.60;;;18.40;59.30;;;;;;4994961;28;20656;-73
2022/09/23 00:26:12;;;;;;;1.77;1.67;;;18.40;59.30;;;;;;5011934;28;20219;-72
2022/09/23 00:28:39;;;;;;;1.83;1.73;;;18.40;59.40;;;;;;5028242;28;20203;-73
2022/09/23 00:31:09;;;;;;;1.73;1.63;;;18.40;59.30;;;;;;5011915;28;20223;-73
2022/09/23 00:33:35;;;;;;;1.60;1.50;;;18.40;59.30;;;;;;4995024;28;20188;-73
2022/09/23 00:36:03;;;;;;;1.80;1.70;;;18.30;59.20;;;;;;5011590;28;20212;-73
2022/09/23 00:38:29;;;;;;;2.05;1.85;;;18.40;59.30;;;;;;4995217;28;20184;-73
2022/09/23 00:40:57;;;;;;;1.63;1.52;;;18.40;59.40;;;;;;5011463;28;20318;-73
2022/09/23 00:43:58;;;;;;;1.48;1.38;;;18.40;59.40;;;;;;5029046;28;20187;-73
2022/09/23 00:46:33;;;;;;;1.45;1.40;;;18.40;59.40;;;;;;5025263;28;20305;-73
2022/09/23 00:49:14;;;;;;;1.63;1.52;;;18.40;59.40;;;;;;5031553;28;20178;-73
2022/09/23 00:51:47;;;;;;;3.30;1.70;;;18.30;59.20;;;;;;5032537;28;20205;-73
2022/09/23 00:54:13;;;;;;;2.10;1.60;;;18.30;59.20;;;;;;5047882;28;20183;-73
2022/09/23 00:56:39;;;;;;;1.98;1.88;;;18.30;59.30;;;;;;5031034;28;20203;-73
2022/09/23 00:59:08;;;;;;;1.92;1.40;;;18.30;59.30;;;;;;5031031;28;20217;-73
2022/09/23 01:01:36;;;;;;;1.50;1.40;;;18.40;59.40;;;;;;5031402;28;20179;-73
2022/09/23 01:04:03;;;;;;;1.75;1.58;;;18.30;59.40;;;;;;5030878;28;20211;-73
2022/09/23 01:06:29;;;;;;;1.73;1.63;;;18.30;59.30;;;;;;5034389;28;20241;-73
2022/09/23 01:08:56;;;;;;;2.08;1.70;;;18.30;59.40;;;;;;5035375;28;20182;-73
2022/09/23 01:11:38;;;;;;;2.38;1.40;;;18.30;59.20;;;;;;5018601;28;20298;-73
2022/09/23 01:14:30;;;;;;;1.70;1.60;;;18.30;59.30;;;;;;5035880;28;20191;-73
2022/09/23 01:17:26;;;;;;;1.40;1.30;;;18.30;59.20;;;;;;5035492;28;20207;-73
2022/09/23 01:20:47;;;;;;;1.90;1.73;;;18.30;59.30;;;;;;5034987;28;20184;-72
2022/09/23 01:24:18;;;;;;;1.85;1.50;;;18.30;59.40;;;;;;5033655;28;20230;-73
2022/09/23 01:27:09;;;;;;;1.45;1.35;;;18.30;59.30;;;;;;5053462;28;20214;-73
2022/09/23 01:30:32;;;;;;;1.73;1.63;;;18.30;59.30;;;;;;5018011;28;20184;-73
2022/09/23 01:33:43;;;;;;;1.45;1.35;;;18.30;59.20;;;;;;5040047;28;20214;-73
2022/09/23 01:36:44;;;;;;;1.48;1.38;;;18.30;59.20;;;;;;5033961;28;20219;-73
2022/09/23 01:40:10;;;;;;;1.60;1.50;;;18.30;59.30;;;;;;5051033;28;20167;-73
2022/09/23 01:43:01;;;;;;;1.60;1.50;;;18.30;59.40;;;;;;5037509;28;20195;-73
2022/09/23 01:45:40;;;;;;;1.70;1.60;;;18.30;59.40;;;;;;5032414;28;20274;-74
2022/09/23 01:48:13;;;;;;;1.65;1.55;;;18.30;59.30;;;;;;5034478;28;20215;-73
2022/09/23 01:50:59;;;;;;;1.60;1.50;;;18.30;59.30;;;;;;5034363;28;20227;-73
2022/09/23 01:53:47;;;;;;;1.63;1.50;;;18.30;59.30;;;;;;5034183;28;20179;-72
2022/09/23 01:56:24;;;;;;;1.55;1.45;;;18.30;59.30;;;;;;5034033;28;20203;-73
2022/09/23 01:59:04;;;;;;;1.48;1.38;;;18.30;59.30;;;;;;5034290;28;20171;-73
2022/09/23 02:01:40;;;;;;;1.23;1.17;;;18.30;59.40;;;;;;5034002;28;20183;-73
2022/09/23 02:04:18;;;;;;;1.60;1.50;;;18.30;59.40;;;;;;5033832;28;20171;-73
2022/09/23 02:06:58;;;;;;;1.73;1.63;;;18.30;59.20;;;;;;5017395;28;20708;-73
2022/09/23 02:09:36;;;;;;;1.75;1.65;;;18.30;59.30;;;;;;5033838;28;20193;-73
2022/09/23 02:12:11;;;;;;;1.80;1.70;;;18.30;59.40;;;;;;5033945;28;20207;-73
2022/09/23 02:14:53;;;;;;;1.33;1.23;;;18.30;59.30;;;;;;5026637;28;20192;-73
2022/09/23 02:17:41;;;;;;;1.50;1.40;;;18.30;59.40;;;;;;5018456;28;20262;-73
2022/09/23 02:20:07;;;;;;;1.48;1.38;;;18.30;59.30;;;;;;5013903;28;20184;-73
2022/09/23 02:22:41;;;;;;;1.50;1.40;;;18.20;59.30;;;;;;5030431;28;20183;-69
2022/09/23 02:25:11;;;;;;;1.52;1.42;;;18.30;59.40;;;;;;4997463;28;20730;-73
2022/09/23 02:27:59;;;;;;;1.63;1.50;;;18.30;59.20;;;;;;5030166;28;20295;-73
2022/09/23 02:30:31;;;;;;;1.42;1.33;;;18.30;59.30;;;;;;5013624;28;20323;-73
2022/09/23 02:33:15;;;;;;;1.50;1.40;;;18.30;59.30;;;;;;4997369;28;20186;-73
2022/09/23 02:36:07;;;;;;;1.20;1.20;;;18.30;59.40;;;;;;5014639;28;20698;-73
2022/09/23 02:38:43;;;;;;;1.52;1.38;;;18.30;59.40;;;;;;4997563;28;20266;-73
2022/09/23 02:41:28;;;;;;;1.55;1.45;;;18.20;59.30;;;;;;5029336;28;20191;-73
2022/09/23 02:44:05;;;;;;;1.50;1.25;;;18.20;59.30;;;;;;5005221;28;20281;-73
2022/09/23 02:46:32;;;;;;;1.75;1.50;;;18.20;59.20;;;;;;5017805;28;20211;-73
2022/09/23 02:49:20;;;;;;;1.40;1.30;;;18.20;59.20;;;;;;5030203;28;20263;-73
2022/09/23 02:51:46;;;;;;;1.50;1.40;;;18.20;59.20;;;;;;5013394;28;20238;-73
2022/09/23 02:54:18;;;;;;;1.80;1.70;;;18.20;59.30;;;;;;5029957;28;20717;-73
2022/09/23 02:56:44;;;;;;;2.90;1.70;;;18.20;59.20;;;;;;5029635;28;20210;-73
2022/09/23 02:59:11;;;;;;;1.58;1.48;;;18.20;59.20;;;;;;5014487;28;20176;-73
2022/09/23 03:01:45;;;;;;;1.58;1.40;;;18.20;59.30;;;;;;4997066;28;20250;-73
2022/09/23 03:04:30;;;;;;;1.42;1.33;;;18.20;59.30;;;;;;4996667;28;20173;-73
2022/09/23 03:07:31;;;;;;;1.63;1.52;;;18.20;59.20;;;;;;5029600;28;20208;-73
2022/09/23 03:10:03;;;;;;;1.42;1.33;;;18.20;59.30;;;;;;5014029;28;20183;-73
2022/09/23 03:13:21;;;;;;;1.45;1.35;;;18.20;59.20;;;;;;5013062;28;20564;-73
2022/09/23 03:16:29;;;;;;;1.50;1.40;;;18.20;59.20;;;;;;5028983;28;20302;-73
2022/09/23 03:19:19;;;;;;;1.63;1.52;;;18.20;59.30;;;;;;5029195;28;20176;-73
2022/09/23 03:21:59;;;;;;;1.67;1.58;;;18.20;59.20;;;;;;5028527;28;20176;-72
2022/09/23 03:24:30;;;;;;;1.80;1.70;;;18.20;59.20;;;;;;5041832;28;20184;-73
2022/09/23 03:27:02;;;;;;;1.55;1.45;;;18.20;59.20;;;;;;5011834;28;20211;-73
2022/09/23 03:29:29;;;;;;;1.58;1.48;;;18.20;59.20;;;;;;5016582;28;20238;-73
2022/09/23 03:31:57;;;;;;;1.58;1.30;;;18.20;59.20;;;;;;5049255;28;20313;-73
2022/09/23 03:34:31;;;;;;;1.50;1.40;;;18.20;59.20;;;;;;5032914;28;20279;-73
2022/09/23 03:37:07;;;;;;;1.58;1.48;;;18.10;59.10;;;;;;5015653;28;20215;-73
2022/09/23 03:39:46;;;;;;;1.38;1.30;;;18.10;59.10;;;;;;5032692;28;20175;-73
2022/09/23 03:42:30;;;;;;;1.60;1.50;;;18.20;59.20;;;;;;5032529;28;20233;-73
2022/09/23 03:44:57;;;;;;;1.40;1.30;;;18.10;59.20;;;;;;5032834;28;20274;-73
2022/09/23 03:47:27;;;;;;;1.60;1.50;;;18.10;59.10;;;;;;5032115;28;20211;-72
2022/09/23 03:49:55;;;;;;;1.52;1.42;;;18.20;59.20;;;;;;5048814;28;20195;-73
2022/09/23 03:52:23;;;;;;;1.40;1.30;;;18.10;59.10;;;;;;5032999;28;20234;-73
2022/09/23 03:54:50;;;;;;;1.60;1.50;;;18.20;59.20;;;;;;5016920;28;20246;-73
2022/09/23 03:57:17;;;;;;;1.50;1.40;;;18.20;59.10;;;;;;5048642;28;20272;-73
2022/09/23 03:59:43;;;;;;;1.52;1.42;;;18.10;59.10;;;;;;5015859;28;20211;-73
2022/09/23 04:02:10;;;;;;;1.52;1.42;;;18.20;59.20;;;;;;5031708;28;20245;-73
2022/09/23 04:04:39;;;;;;;1.50;1.40;;;18.20;59.20;;;;;;5033333;28;20168;-73
2022/09/23 04:07:05;;;;;;;1.77;1.67;;;18.10;59.10;;;;;;5048535;28;20207;-73
2022/09/23 04:09:31;;;;;;;1.40;1.30;;;18.20;59.20;;;;;;5031987;28;20198;-73
2022/09/23 04:11:56;;;;;;;1.50;1.40;;;18.10;59.20;;;;;;5031876;28;20297;-73
2022/09/23 04:14:23;;;;;;;1.70;1.60;;;18.10;59.10;;;;;;5048393;28;20179;-73
2022/09/23 04:16:49;;;;;;;1.50;1.40;;;18.10;59.10;;;;;;5015189;28;20203;-73
2022/09/23 04:19:16;;;;;;;1.48;1.33;;;18.20;59.20;;;;;;5031983;28;20179;-74
2022/09/23 04:21:44;;;;;;;1.55;1.45;;;18.10;59.10;;;;;;5031345;28;20190;-74
2022/09/23 04:24:11;;;;;;;1.75;1.65;;;18.10;59.20;;;;;;5020906;28;20184;-73
2022/09/23 04:26:38;;;;;;;1.60;1.50;;;18.10;59.10;;;;;;5008387;28;20208;-74
2022/09/23 04:29:05;;;;;;;1.52;1.42;;;18.10;59.10;;;;;;5028329;28;20187;-73
2022/09/23 04:31:32;;;;;;;1.67;1.58;;;18.10;59.10;;;;;;5028263;28;20706;-74
2022/09/23 04:33:59;;;;;;;1.40;1.30;;;18.10;59.10;;;;;;5028076;28;20168;-74
2022/09/23 04:36:25;;;;;;;1.30;1.23;;;18.10;59.10;;;;;;5012696;28;20207;-74
2022/09/23 04:38:51;;;;;;;1.50;1.40;;;18.10;59.10;;;;;;5012599;28;20191;-73
2022/09/23 04:41:18;;;;;;;1.63;1.52;;;18.10;59.10;;;;;;5027243;28;20192;-74
2022/09/23 04:43:44;;;;;;;1.40;1.30;;;18.10;59.10;;;;;;5012644;28;20196;-74
2022/09/23 04:46:13;;;;;;;1.60;1.50;;;18.10;59.10;;;;;;5028048;28;20216;-74
2022/09/23 04:48:40;;;;;;;1.30;1.20;;;18.10;59.10;;;;;;5012771;28;20202;-74
2022/09/23 04:51:17;;;;;;;1.50;1.40;;;18.10;59.10;;;;;;5012931;28;20204;-74
2022/09/23 04:53:46;;;;;;;1.25;1.20;;;18.10;59.10;;;;;;5025438;28;20168;-74
2022/09/23 04:56:15;;;;;;;1.55;1.45;;;18.10;59.10;;;;;;5022100;28;20213;-73
2022/09/23 04:58:43;;;;;;;2.13;1.23;;;18.10;59.10;;;;;;5011244;28;20660;-74
2022/09/23 05:01:16;;;;;;;2.20;1.48;;;18.10;59.10;;;;;;5027753;28;20202;-74
2022/09/23 05:03:44;;;;;;;2.08;1.60;;;18.10;59.10;;;;;;5013188;28;20179;-73
2022/09/23 05:06:12;;;;;;;2.20;1.60;;;18.10;59.10;;;;;;5031122;28;20207;-70
2022/09/23 05:08:40;;;;;;;1.58;1.48;;;18.10;59.10;;;;;;5047425;28;20187;-74
2022/09/23 05:11:07;;;;;;;1.83;1.73;;;18.10;59.10;;;;;;5031151;28;20219;-73
2022/09/23 05:13:34;;;;;;;2.20;2.00;;;18.00;59.00;;;;;;5031963;28;20179;-74
2022/09/23 05:16:07;;;;;;;1.77;1.67;;;18.10;59.10;;;;;;5047352;28;20195;-74
2022/09/23 05:18:34;;;;;;;2.08;1.83;;;18.00;59.00;;;;;;5030863;28;20187;-73
2022/09/23 05:21:02;;;;;;;1.90;1.80;;;18.10;59.10;;;;;;5031226;28;20191;-73
2022/09/23 05:23:29;;;;;;;2.13;1.80;;;18.10;59.10;;;;;;5030366;28;20187;-73
2022/09/23 05:26:10;;;;;;;1.70;1.60;;;18.00;59.00;;;;;;5038892;28;20262;-73
2022/09/23 05:28:38;;;;;;;1.50;1.40;;;18.00;59.00;;;;;;5030612;28;20194;-74
2022/09/23 05:31:14;;;;;;;1.85;1.75;;;18.10;59.10;;;;;;5049072;28;20221;-74
2022/09/23 05:33:43;;;;;;;1.67;1.58;;;18.00;59.00;;;;;;5049719;28;20273;-73
2022/09/23 05:36:09;;;;;;;1.65;1.55;;;18.00;59.00;;;;;;5033707;28;20226;-75
2022/09/23 05:38:35;;;;;;;2.15;1.90;;;18.00;59.00;;;;;;5033336;28;20183;-75
2022/09/23 05:41:06;;;;;;;2.00;1.80;;;18.00;59.00;;;;;;5050174;28;20191;-75
2022/09/23 05:43:32;;;;;;;4.38;2.25;;;18.00;59.00;;;;;;5033158;28;20186;-74
2022/09/23 05:46:14;;;;;;;2.00;1.80;;;18.00;59.00;;;;;;5033329;28;20244;-74
2022/09/23 05:48:41;;;;;;;3.72;2.22;;;18.10;59.10;;;;;;5049392;28;20186;-74
2022/09/23 05:51:16;;;;;;;2.08;1.92;;;18.10;59.10;;;;;;5033761;28;20236;-74
2022/09/23 05:53:45;;;;;;;2.85;2.13;;;18.10;59.10;;;;;;5036249;28;20231;-74
2022/09/23 05:56:18;;;;;;;3.47;2.00;;;18.00;59.00;;;;;;5053526;28;20252;-74
2022/09/23 05:58:44;;;;;;;2.50;2.10;;;18.00;59.00;;;;;;5036787;28;20182;-75
2022/09/23 06:01:14;;;;;;;2.47;2.10;;;18.00;59.00;;;;;;5053545;28;20260;-74
2022/09/23 06:03:39;;;;;;;3.25;2.15;;;18.10;59.10;;;;;;5036578;28;20193;-74
2022/09/23 06:06:11;;;;;;;2.67;2.47;;;18.00;59.00;;;;;;5053459;28;20214;-74
2022/09/23 06:08:37;;;;;;;3.03;2.20;;;18.10;59.10;;;;;;5053375;28;20190;-74
2022/09/23 06:11:07;;;;;;;2.50;2.30;;;18.00;59.00;;;;;;5053182;28;20211;-74
2022/09/23 06:13:37;;;;;;;2.80;2.00;;;18.10;59.10;;;;;;5054162;28;20187;-74
2022/09/23 06:16:08;;;;;;;2.38;2.17;;;18.00;59.00;;;;;;5036241;28;20209;-74
2022/09/23 06:18:38;;;;;;;3.13;2.40;;;18.10;59.10;;;;;;5053395;28;20251;-74
2022/09/23 06:21:04;;;;;;;3.55;2.22;;;18.10;59.10;;;;;;5053010;28;20182;-74
2022/09/23 06:23:31;;;;;;;2.95;2.08;;;18.00;59.00;;;;;;5052923;28;20193;-74
2022/09/23 06:26:03;;;;;;;4.88;2.25;;;18.00;59.00;;;;;;5053028;28;20301;-76
2022/09/23 06:28:35;;;;;;;3.50;2.10;;;18.10;59.10;;;;;;5053085;28;20199;-74
2022/09/23 06:31:09;;;;;;;3.30;2.28;;;18.10;59.10;;;;;;5053802;28;20217;-74
2022/09/23 06:33:35;;;;;;;3.08;2.58;;;18.10;59.10;;;;;;5052401;28;20280;-74
2022/09/23 06:36:04;;;;;;;2.95;2.47;;;18.10;59.10;;;;;;5036116;28;20206;-74
2022/09/23 06:38:35;;;;;;;4.00;2.50;;;18.00;59.00;;;;;;5036296;28;20206;-74
2022/09/23 06:41:02;;;;;;;2.85;2.60;;;18.10;59.10;;;;;;5052809;28;20197;-75
2022/09/23 06:43:29;;;;;;;3.33;2.38;;;18.10;59.10;;;;;;5053679;28;20185;-74
2022/09/23 06:46:02;;;;;;;3.10;2.30;;;18.10;59.10;;;;;;5052208;28;20232;-74
2022/09/23 06:48:30;;;;;;;3.08;2.40;;;18.10;59.10;;;;;;5035818;28;20220;-74
2022/09/23 06:51:01;;;;;;;4.20;2.90;;;18.10;59.10;;;;;;5052478;28;20221;-74
2022/09/23 06:53:30;;;;;;;2.85;2.63;;;18.10;59.10;;;;;;5035649;28;20673;-74
2022/09/23 06:56:05;;;;;;;3.03;2.50;;;18.10;59.10;;;;;;5035687;28;20195;-74
2022/09/23 06:58:34;;;;;;;3.08;2.15;;;18.10;59.10;;;;;;5035776;28;20213;-74
2022/09/23 07:01:10;;;;;;;3.28;2.70;;;18.10;59.10;;;;;;5053291;28;20192;-75
2022/09/23 07:03:37;;;;;;;2.75;2.47;;;18.20;59.10;;;;;;5026528;28;20190;-74
2022/09/23 07:06:05;;;;;;;3.92;2.33;;;18.10;59.10;;;;;;5048727;28;20223;-74
2022/09/23 07:08:32;;;;;;;2.58;2.25;;;18.10;59.10;;;;;;5032358;28;20183;-74
2022/09/23 07:11:02;;;;;;;3.47;2.63;;;18.10;59.10;;;;;;5045461;28;20218;-74
2022/09/23 07:13:32;;;;;;;4.32;3.00;;;18.20;59.20;;;;;;5032264;28;20180;-74
2022/09/23 07:16:00;;;;;;;4.13;3.20;;;18.10;59.10;;;;;;5031881;28;20624;-75
2022/09/23 07:18:30;;;;;;;3.92;2.38;;;18.10;59.10;;;;;;5048730;28;20257;-74
2022/09/23 07:20:58;;;;;;;3.20;2.88;;;18.20;59.10;;;;;;5033264;28;20282;-74
2022/09/23 07:23:24;;;;;;;2.80;2.60;;;18.20;59.20;;;;;;5031361;28;20201;-75
2022/09/23 07:25:52;;;;;;;3.60;2.83;;;18.20;59.10;;;;;;5031970;28;20199;-75
2022/09/23 07:28:19;;;;;;;4.07;2.78;;;18.20;59.20;;;;;;5032048;28;20239;-76
2022/09/23 07:30:46;;;;;;;3.35;2.92;;;18.20;59.10;;;;;;5023363;28;20234;-74
2022/09/23 07:33:12;;;;;;;3.20;2.53;;;18.20;59.20;;;;;;5031568;28;20200;-74
2022/09/23 07:35:40;;;;;;;2.78;2.30;;;18.20;59.10;;;;;;5031695;28;20183;-73
2022/09/23 07:38:08;;;;;;;2.95;2.65;;;18.30;59.20;;;;;;5033184;28;20190;-75
2022/09/23 07:40:34;;;;;;;3.63;3.08;;;18.30;59.10;;;;;;5032369;28;20191;-74
2022/09/23 07:43:00;;;;;;;4.72;2.88;;;18.30;59.00;;;;;;5050753;28;20210;-74
2022/09/23 07:45:26;;;;;;;3.42;2.78;;;18.30;59.00;;;;;;5032525;28;20187;-74
2022/09/23 07:47:54;;;;;;;5.43;2.95;;;18.40;59.10;;;;;;5031609;28;20589;-74
2022/09/23 07:50:21;;;;;;;5.60;2.80;;;18.40;59.10;;;;;;5014834;28;20233;-75
2022/09/23 07:52:51;;;;;;;3.13;2.78;;;18.40;59.20;;;;;;5031452;28;20185;-74
2022/09/23 07:55:18;;;;;;;4.13;2.67;;;18.40;59.20;;;;;;5031136;28;20179;-74
2022/09/23 07:57:43;;;;;;;3.58;2.67;;;18.40;59.30;;;;;;5014878;28;20203;-75
2022/09/23 08:00:11;;;;;;;3.53;2.75;;;18.40;59.30;;;;;;5031180;28;20565;-73
2022/09/23 08:02:40;;;;;;;3.22;2.50;;;18.40;59.30;;;;;;5030856;28;20198;-75
2022/09/23 08:05:06;;;;;;;4.07;3.10;;;18.40;59.30;;;;;;5047832;28;20180;-74
2022/09/23 08:07:33;;;;;;;2.85;2.60;;;18.50;59.30;;;;;;5047646;28;20203;-75
2022/09/23 08:10:00;;;;;;;3.70;2.70;;;18.50;59.30;;;;;;5030396;28;20195;-74
2022/09/23 08:12:28;;;;;;;3.45;3.08;;;18.50;59.20;;;;;;5030607;28;20219;-74
2022/09/23 08:14:54;;;;;;;2.88;2.58;;;18.50;59.30;;;;;;5046804;28;20237;-75
2022/09/23 08:17:20;;;;;;;4.10;3.10;;;18.50;59.20;;;;;;5031002;28;20207;-75
2022/09/23 08:19:46;;;;;;;3.90;2.95;;;18.50;59.20;;;;;;5032055;28;20175;-74
2022/09/23 08:22:11;;;;;;;3.85;2.83;;;18.50;59.30;;;;;;5031183;28;20565;-74
2022/09/23 08:24:37;;;;;;;3.25;2.45;;;18.50;59.40;;;;;;5030610;28;20214;-74
2022/09/23 08:27:03;;;;;;;3.75;2.72;;;18.50;59.40;;;;;;5030855;28;20214;-76
2022/09/23 08:29:29;;;;;;;3.50;2.70;;;18.50;60.00;;;;;;5030808;28;20282;-74
2022/09/23 08:31:55;;;;;;;3.10;2.65;;;18.50;59.40;;;;;;5030630;28;20219;-74
2022/09/23 08:34:22;;;;;;;3.53;2.60;;;18.50;59.40;;;;;;5030359;28;20191;-74
2022/09/23 08:36:49;;;;;;;4.40;2.80;;;18.50;59.40;;;;;;5030630;28;20269;-75
2022/09/23 08:39:17;;;;;;;3.15;2.58;;;18.50;59.40;;;;;;5047124;28;20674;-75
2022/09/23 08:41:52;;;;;;;2.92;2.53;;;18.50;59.40;;;;;;5014374;28;20245;-75
2022/09/23 08:44:41;;;;;;;3.65;2.78;;;18.50;59.40;;;;;;5030159;28;20214;-74
2022/09/23 08:47:16;;;;;;;4.30;2.50;;;18.50;59.40;;;;;;5013742;28;20242;-74
2022/09/23 08:50:07;;;;;;;4.80;2.55;;;18.50;59.50;;;;;;5030768;28;20236;-75
2022/09/23 08:52:57;;;;;;;3.50;2.53;;;18.50;59.40;;;;;;5031410;28;20199;-75
2022/09/23 08:55:33;;;;;;;3.25;2.22;;;18.50;59.40;;;;;;5030627;28;20191;-74
2022/09/23 08:58:28;;;;;;;3.00;2.13;;;18.50;59.60;;;;;;5030689;28;20188;-74
2022/09/23 09:01:15;;;;;;;3.50;2.42;;;18.50;59.60;;;;;;5014051;28;20191;-75
2022/09/23 09:03:47;;;;;;;3.40;2.88;;;18.50;59.50;;;;;;5030217;28;20187;-74
2022/09/23 09:06:29;;;;;;;3.42;2.90;;;18.50;59.60;;;;;;5027930;28;20211;-75
2022/09/23 09:09:03;;;;;;;4.43;3.17;;;18.50;59.60;;;;;;5014012;28;20193;-74
2022/09/23 09:11:39;;;;;;;3.45;3.03;;;18.50;59.70;;;;;;5030396;28;20710;-75
2022/09/23 09:14:39;;;;;;;3.00;2.58;;;18.50;59.70;;;;;;5030432;28;20191;-75
2022/09/23 09:17:37;;;;;;;2.90;2.60;;;18.50;59.70;;;;;;5015949;28;20207;-75
2022/09/23 09:20:33;;;;;;;2.97;2.33;;;18.50;59.80;;;;;;4994043;28;20184;-74
2022/09/23 09:22:59;;;;;;;3.05;2.80;;;18.50;59.70;;;;;;5010196;28;20207;-75
2022/09/23 09:25:43;;;;;;;2.60;2.40;;;18.60;59.70;;;;;;5026837;28;20190;-75
2022/09/23 09:28:31;;;;;;;3.33;2.40;;;18.60;59.80;;;;;;5015077;28;20175;-75
2022/09/23 09:31:01;;;;;;;3.55;2.67;;;18.50;59.80;;;;;;5014829;28;20214;-75
2022/09/23 09:33:45;;;;;;;3.05;2.65;;;18.50;59.90;;;;;;5015827;28;20226;-74
2022/09/23 09:36:31;;;;;;;2.80;2.25;;;18.50;59.80;;;;;;4998433;28;20222;-75
2022/09/23 09:38:58;;;;;;;3.00;2.55;;;18.50;60.10;;;;;;5014880;28;20176;-74
2022/09/23 09:41:30;;;;;;;3.17;2.35;;;18.50;60.00;;;;;;4998236;28;20188;-75
2022/09/23 09:43:58;;;;;;;3.10;2.42;;;18.60;60.20;;;;;;5002084;28;20216;-74
2022/09/23 09:46:54;;;;;;;3.47;2.88;;;18.50;60.00;;;;;;5021743;28;20215;-74
2022/09/23 09:49:50;;;;;;;2.42;2.22;;;18.50;60.10;;;;;;5029236;28;20192;-74
2022/09/23 09:52:27;;;;;;;4.18;2.70;;;18.50;60.10;;;;;;4998162;28;20231;-74
2022/09/23 09:54:58;;;;;;;3.28;2.42;;;18.50;60.10;;;;;;5014424;28;20524;-73
2022/09/23 09:58:02;;;;;;;2.50;2.30;;;18.50;60.00;;;;;;4997912;28;20208;-74
2022/09/23 10:00:34;;;;;;;2.50;2.17;;;18.50;60.00;;;;;;4997791;28;20183;-74
2022/09/23 10:03:14;;;;;;;3.08;2.50;;;18.50;60.10;;;;;;4997555;28;20231;-73
2022/09/23 10:05:43;;;;;;;2.90;2.60;;;18.50;60.10;;;;;;4998003;28;20191;-74
2022/09/23 10:08:25;;;;;;;3.35;2.70;;;18.50;60.10;;;;;;5014091;28;20644;-74
2022/09/23 10:10:57;;;;;;;3.30;2.42;;;18.50;60.00;;;;;;5014339;28;20215;-74
2022/09/23 10:13:26;;;;;;;3.40;2.55;;;18.60;60.20;;;;;;5013836;28;20188;-74
2022/09/23 10:15:53;;;;;;;2.90;2.50;;;18.50;60.10;;;;;;5013944;28;20200;-74
2022/09/23 10:18:49;;;;;;;4.43;2.70;;;18.50;60.10;;;;;;4997619;28;20223;-74
2022/09/23 10:21:20;;;;;;;2.35;1.92;;;18.60;60.30;;;;;;5015141;28;20283;-74
2022/09/23 10:23:51;;;;;;;2.58;2.25;;;18.50;60.10;;;;;;4997511;28;20682;-74
2022/09/23 10:26:29;;;;;;;3.00;2.30;;;18.60;60.40;;;;;;5013660;28;20219;-74
2022/09/23 10:28:57;;;;;;;3.00;2.60;;;18.60;60.50;;;;;;5013948;28;20191;-72
2022/09/23 10:31:34;;;;;;;2.83;2.53;;;18.60;60.40;;;;;;5013645;28;20231;-74
2022/09/23 10:34:03;;;;;;;2.70;2.15;;;18.60;60.40;;;;;;5013592;28;20168;-74
2022/09/23 10:36:32;;;;;;;2.97;2.42;;;18.60;60.40;;;;;;5013471;28;20216;-75
2022/09/23 10:48:24;;;;;;;2.28;2.17;;;18.60;60.70;;;;;;5014595;28;20180;-74
2022/09/23 10:50:53;;;;;;;2.47;2.22;;;18.60;60.70;;;;;;5013600;28;20203;-74
2022/09/23 10:53:52;;;;;;;35.92;4.75;;;18.60;60.60;;;;;;5013094;28;20184;-75
2022/09/23 10:56:30;;;;;;;38.53;5.95;;;18.90;62.20;;;;;;5013649;28;20211;-72
2022/09/23 10:59:15;;;;;;;30.77;4.50;;;19.20;61.90;;;;;;5013562;28;20207;-73
2022/09/23 11:02:16;;;;;;;18.27;3.83;;;19.30;62.70;;;;;;5013074;28;20180;-73
2022/09/23 11:05:19;;;;;;;14.27;3.13;;;19.20;62.90;;;;;;5012539;28;20631;-73
2022/09/23 11:08:05;;;;;;;6.28;2.38;;;19.10;63.50;;;;;;4996976;28;20212;-73
2022/09/23 11:10:56;;;;;;;6.35;2.90;;;19.10;63.90;;;;;;4996669;28;20208;-74
2022/09/23 11:13:46;;;;;;;7.93;3.08;;;19.10;64.00;;;;;;4996748;28;20226;-74
2022/09/23 11:16:17;;;;;;;5.53;2.70;;;19.00;64.10;;;;;;5022091;28;20199;-71
2022/09/23 11:19:20;;;;;;;9.32;2.70;;;19.10;64.40;;;;;;4997531;28;20191;-74
2022/09/23 11:22:20;;;;;;;5.38;2.85;;;19.10;64.40;;;;;;5025194;28;20286;-73
2022/09/23 11:25:04;;;;;;;6.75;2.58;;;19.00;64.30;;;;;;5010681;28;20200;-74
2022/09/23 11:28:01;;;;;;;5.43;2.85;;;19.10;64.50;;;;;;5013799;28;20285;-74
2022/09/23 11:31:08;;;;;;;7.18;2.53;;;19.10;64.50;;;;;;5029168;28;20632;-74
2022/09/23 11:34:07;;;;;;;3.80;2.35;;;19.10;65.20;;;;;;5020973;28;20686;-73
2022/09/23 11:36:55;;;;;;;4.63;2.53;;;19.10;64.50;;;;;;4996166;28;20216;-73
2022/09/23 11:39:31;;;;;;;7.57;2.80;;;19.10;64.50;;;;;;5012519;28;20282;-73
2022/09/23 11:42:00;;;;;;;5.68;2.80;;;19.10;64.60;;;;;;5028885;28;20587;-72
2022/09/23 11:44:36;;;;;;;5.78;2.40;;;19.10;64.50;;;;;;5012331;28;20183;-72
2022/09/23 11:47:20;;;;;;;8.05;2.83;;;19.10;64.50;;;;;;5012434;28;20203;-72
2022/09/23 11:49:54;;;;;;;4.88;2.70;;;19.10;64.50;;;;;;5012372;28;20184;-72
2022/09/23 11:52:40;;;;;;;5.65;3.00;;;19.10;64.50;;;;;;5013203;28;20199;-73
2022/09/23 11:55:17;;;;;;;6.95;2.10;;;19.10;64.50;;;;;;5012125;28;20188;-72
2022/09/23 11:57:50;;;;;;;7.07;2.28;;;19.20;64.70;;;;;;5011900;28;20207;-74
2022/09/23 12:00:26;;;;;;;7.30;2.85;;;19.20;64.60;;;;;;5012238;28;20191;-73
2022/09/23 12:03:06;;;;;;;3.95;2.35;;;19.20;64.70;;;;;;5011669;28;20282;-72
2022/09/23 12:05:44;;;;;;;4.25;2.67;;;19.20;64.80;;;;;;4996048;28;20634;-73
2022/09/23 12:08:29;;;;;;;2.42;2.15;;;19.20;64.70;;;;;;5028208;28;20180;-73
2022/09/23 12:11:40;;;;;;;4.95;2.38;;;19.20;64.70;;;;;;5012061;28;20208;-73
2022/09/23 12:14:25;;;;;;;2.90;2.25;;;19.20;64.70;;;;;;4995343;28;20184;-72
2022/09/23 12:17:10;;;;;;;3.38;2.33;;;19.20;64.60;;;;;;5028394;28;20208;-72
2022/09/23 12:19:38;;;;;;;5.57;2.38;;;19.20;64.70;;;;;;5011775;28;20172;-72
2022/09/23 12:22:12;;;;;;;5.35;2.40;;;19.20;64.60;;;;;;5011804;28;20208;-72
2022/09/23 12:24:53;;;;;;;3.35;2.28;;;19.20;64.50;;;;;;4995422;28;20745;-72
2022/09/23 12:27:35;;;;;;;3.50;2.55;;;19.20;64.50;;;;;;4995011;28;20208;-72
2022/09/23 12:30:17;;;;;;;6.35;2.40;;;19.20;64.50;;;;;;5012791;28;20196;-73
2022/09/23 12:32:43;;;;;;;3.38;2.38;;;19.20;64.50;;;;;;5028073;28;20192;-72
2022/09/23 12:35:38;;;;;;;2.67;2.35;;;19.20;64.50;;;;;;5011526;28;20188;-73
2022/09/23 12:38:21;;;;;;;2.92;2.20;;;19.20;64.40;;;;;;5011317;28;20188;-72
2022/09/23 12:40:48;;;;;;;5.78;1.95;;;19.20;64.50;;;;;;5011412;28;20172;-72
2022/09/23 12:43:31;;;;;;;7.60;2.45;;;19.20;64.50;;;;;;5011457;28;20211;-72
2022/09/23 12:46:26;;;;;;;4.13;2.30;;;19.30;64.60;;;;;;4994958;28;20254;-72
2022/09/23 12:48:57;;;;;;;3.30;2.08;;;19.30;64.70;;;;;;5011874;28;20238;-73
2022/09/23 12:52:11;;;;;;;3.50;2.42;;;19.30;64.70;;;;;;5011580;28;20220;-73
2022/09/23 12:54:43;;;;;;;3.65;2.03;;;19.30;64.60;;;;;;5015652;28;20195;-73
2022/09/23 12:57:11;;;;;;;6.03;2.20;;;19.30;64.60;;;;;;4995150;28;20753;-73
2022/09/23 12:59:58;;;;;;;4.72;2.40;;;19.30;64.60;;;;;;4995189;28;20195;-74
2022/09/23 13:02:31;;;;;;;4.25;2.20;;;19.30;64.60;;;;;;5014598;28;20187;-74
2022/09/23 13:08:13;;;;;;;4.93;2.13;;;19.30;64.90;;;;;;5015523;28;20194;-74
2022/09/23 13:10:48;;;;;;;4.47;2.45;;;19.30;64.90;;;;;;5016367;28;20202;-74
2022/09/23 13:13:38;;;;;;;5.30;2.35;;;19.30;65.10;;;;;;4998983;28;20602;-73
2022/09/23 13:16:18;;;;;;;4.55;2.55;;;19.30;65.10;;;;;;5015390;28;20279;-73
2022/09/23 13:18:59;;;;;;;9.30;2.38;;;19.30;65.10;;;;;;5015282;28;20287;-73
2022/09/23 13:21:43;;;;;;;5.85;2.35;;;19.40;65.20;;;;;;4999108;28;20176;-73
2022/09/23 13:24:12;;;;;;;4.68;2.38;;;19.40;65.40;;;;;;4998269;28;20290;-73
2022/09/23 13:26:52;;;;;;;9.43;3.10;;;19.40;65.70;;;;;;5014779;28;20216;-74
2022/09/23 13:29:41;;;;;;;12.18;2.75;;;19.30;65.40;;;;;;5024844;28;20199;-75
2022/09/23 13:32:17;;;;;;;9.15;2.40;;;19.20;65.60;;;;;;5014778;28;20203;-74
2022/09/23 13:34:59;;;;;;;5.97;2.42;;;19.10;65.70;;;;;;4998166;28;20219;-74
2022/09/23 13:37:39;;;;;;;5.20;2.20;;;19.10;65.80;;;;;;5014503;28;20222;-74
2022/09/23 13:40:26;;;;;;;6.18;2.78;;;19.00;65.90;;;;;;5030690;28;20218;-74
2022/09/23 13:43:30;;;;;;;3.83;2.50;;;19.00;65.80;;;;;;5038906;28;20198;-74